sensor_id;sensor_type;location;lat;lon;timestamp;P1;durP1;ratioP1;P2;durP2;ratioP2
12665;SDS011;58531;59.050;17.416;2023-11-19T00:02:25;2.97;;;2.47;;
12665;SDS011;58531;59.050;17.416;2023-11-19T00:04:52;2.50;;;2.20;;
12665;SDS011;58531;59.050;17.416;2023-11-19T00:07:19;3.00;;;2.17;;
12665;SDS011;58531;59.050;17.416;2023-11-19T00:09:46;2.70;;;2.20;;
12665;SDS011;58531;59.050;17.416;2023-11-19T00:12:13;3.03;;;2.00;;
12665;SDS011;58531;59.050;17.416;2023-11-19T00:14:40;2.80;;;2.03;;
12665;SDS011;58531;59.050;17.416;2023-11-19T00:17:08;2.30;;;1.90;;
12665;SDS011;58531;59.050;17.416;2023-11-19T00:19:35;2.27;;;1.93;;
12665;SDS011;58531;59.050;17.416;2023-11-19T00:22:02;2.73;;;2.00;;
12665;SDS011;58531;59.050;17.416;2023-11-19T00:24:29;2.30;;;2.03;;
12665;SDS011;58531;59.050;17.416;2023-11-19T00:26:57;3.00;;;2.10;;
12665;SDS011;58531;59.050;17.416;2023-11-19T00:29:23;2.80;;;2.23;;
12665;SDS011;58531;59.050;17.416;2023-11-19T00:31:50;3.23;;;2.07;;
12665;SDS011;58531;59.050;17.416;2023-11-19T00:34:19;2.83;;;2.27;;
12665;SDS011;58531;59.050;17.416;2023-11-19T00:36:46;3.10;;;2.03;;
12665;SDS011;58531;59.050;17.416;2023-11-19T00:39:14;2.57;;;2.10;;
12665;SDS011;58531;59.050;17.416;2023-11-19T00:41:41;2.83;;;2.30;;
12665;SDS011;58531;59.050;17.416;2023-11-19T00:44:08;2.60;;;2.00;;
12665;SDS011;58531;59.050;17.416;2023-11-19T00:46:35;2.47;;;2.10;;
12665;SDS011;58531;59.050;17.416;2023-11-19T00:49:02;2.87;;;2.37;;
12665;SDS011;58531;59.050;17.416;2023-11-19T00:51:30;2.40;;;2.20;;
12665;SDS011;58531;59.050;17.416;2023-11-19T00:53:57;2.53;;;2.33;;
12665;SDS011;58531;59.050;17.416;2023-11-19T00:56:26;2.20;;;1.93;;
12665;SDS011;58531;59.050;17.416;2023-11-19T00:58:53;2.50;;;2.30;;
12665;SDS011;58531;59.050;17.416;2023-11-19T01:01:21;3.80;;;2.70;;
12665;SDS011;58531;59.050;17.416;2023-11-19T01:03:48;3.67;;;2.70;;
12665;SDS011;58531;59.050;17.416;2023-11-19T01:06:15;3.90;;;2.37;;
12665;SDS011;58531;59.050;17.416;2023-11-19T01:08:54;2.97;;;2.63;;
12665;SDS011;58531;59.050;17.416;2023-11-19T01:11:22;3.57;;;2.47;;
12665;SDS011;58531;59.050;17.416;2023-11-19T01:13:49;2.83;;;2.50;;
12665;SDS011;58531;59.050;17.416;2023-11-19T01:16:16;3.43;;;2.70;;
12665;SDS011;58531;59.050;17.416;2023-11-19T01:18:43;2.97;;;2.63;;
12665;SDS011;58531;59.050;17.416;2023-11-19T01:21:10;4.00;;;3.57;;
12665;SDS011;58531;59.050;17.416;2023-11-19T01:23:39;2.87;;;2.60;;
12665;SDS011;58531;59.050;17.416;2023-11-19T01:26:09;2.90;;;2.27;;
12665;SDS011;58531;59.050;17.416;2023-11-19T01:28:37;2.53;;;2.33;;
12665;SDS011;58531;59.050;17.416;2023-11-19T01:31:04;3.17;;;2.50;;
12665;SDS011;58531;59.050;17.416;2023-11-19T01:33:31;3.47;;;2.50;;
12665;SDS011;58531;59.050;17.416;2023-11-19T01:35:58;3.07;;;2.23;;
12665;SDS011;58531;59.050;17.416;2023-11-19T01:38:25;3.23;;;2.70;;
12665;SDS011;58531;59.050;17.416;2023-11-19T01:40:55;2.37;;;2.17;;
12665;SDS011;58531;59.050;17.416;2023-11-19T01:43:34;2.40;;;2.00;;
12665;SDS011;58531;59.050;17.416;2023-11-19T01:46:01;3.43;;;2.40;;
12665;SDS011;58531;59.050;17.416;2023-11-19T01:48:29;2.93;;;2.63;;
12665;SDS011;58531;59.050;17.416;2023-11-19T01:50:56;4.37;;;2.33;;
12665;SDS011;58531;59.050;17.416;2023-11-19T01:53:24;2.43;;;2.23;;
12665;SDS011;58531;59.050;17.416;2023-11-19T01:55:51;2.90;;;2.60;;
12665;SDS011;58531;59.050;17.416;2023-11-19T01:58:18;3.07;;;2.77;;
12665;SDS011;58531;59.050;17.416;2023-11-19T02:00:47;2.57;;;2.23;;
12665;SDS011;58531;59.050;17.416;2023-11-19T02:03:14;4.93;;;2.63;;
12665;SDS011;58531;59.050;17.416;2023-11-19T02:05:41;2.67;;;2.10;;
12665;SDS011;58531;59.050;17.416;2023-11-19T02:08:08;4.57;;;2.60;;
12665;SDS011;58531;59.050;17.416;2023-11-19T02:10:35;4.07;;;2.30;;
12665;SDS011;58531;59.050;17.416;2023-11-19T02:13:02;2.63;;;2.17;;
12665;SDS011;58531;59.050;17.416;2023-11-19T02:15:31;2.63;;;2.10;;
12665;SDS011;58531;59.050;17.416;2023-11-19T02:20:48;2.73;;;1.80;;
12665;SDS011;58531;59.050;17.416;2023-11-19T02:23:16;2.57;;;2.30;;
12665;SDS011;58531;59.050;17.416;2023-11-19T02:25:45;3.07;;;2.70;;
12665;SDS011;58531;59.050;17.416;2023-11-19T02:28:18;3.07;;;2.20;;
12665;SDS011;58531;59.050;17.416;2023-11-19T02:30:45;2.10;;;1.70;;
12665;SDS011;58531;59.050;17.416;2023-11-19T02:33:12;2.00;;;1.80;;
12665;SDS011;58531;59.050;17.416;2023-11-19T02:35:40;3.63;;;2.20;;
12665;SDS011;58531;59.050;17.416;2023-11-19T02:38:07;3.07;;;2.20;;
12665;SDS011;58531;59.050;17.416;2023-11-19T02:40:34;2.70;;;2.13;;
12665;SDS011;58531;59.050;17.416;2023-11-19T02:43:01;2.30;;;1.90;;
12665;SDS011;58531;59.050;17.416;2023-11-19T02:45:31;2.50;;;1.90;;
12665;SDS011;58531;59.050;17.416;2023-11-19T02:47:58;2.40;;;2.07;;
12665;SDS011;58531;59.050;17.416;2023-11-19T02:50:26;3.03;;;1.90;;
12665;SDS011;58531;59.050;17.416;2023-11-19T02:52:54;2.50;;;2.00;;
12665;SDS011;58531;59.050;17.416;2023-11-19T02:55:22;3.20;;;2.00;;
12665;SDS011;58531;59.050;17.416;2023-11-19T02:57:49;3.10;;;2.30;;
12665;SDS011;58531;59.050;17.416;2023-11-19T03:00:18;2.10;;;1.87;;
12665;SDS011;58531;59.050;17.416;2023-11-19T03:02:50;1.80;;;1.70;;
12665;SDS011;58531;59.050;17.416;2023-11-19T03:05:24;2.87;;;2.27;;
12665;SDS011;58531;59.050;17.416;2023-11-19T03:07:51;2.30;;;2.10;;
12665;SDS011;58531;59.050;17.416;2023-11-19T03:10:18;2.30;;;2.10;;
12665;SDS011;58531;59.050;17.416;2023-11-19T03:12:45;2.00;;;1.80;;
12665;SDS011;58531;59.050;17.416;2023-11-19T03:15:12;2.43;;;1.83;;
12665;SDS011;58531;59.050;17.416;2023-11-19T03:17:38;2.27;;;1.87;;
12665;SDS011;58531;59.050;17.416;2023-11-19T03:20:07;2.20;;;1.83;;
12665;SDS011;58531;59.050;17.416;2023-11-19T03:22:36;2.17;;;1.83;;
12665;SDS011;58531;59.050;17.416;2023-11-19T03:25:02;2.13;;;1.90;;
12665;SDS011;58531;59.050;17.416;2023-11-19T03:27:30;2.73;;;1.93;;
12665;SDS011;58531;59.050;17.416;2023-11-19T03:29:56;2.37;;;1.97;;
12665;SDS011;58531;59.050;17.416;2023-11-19T03:32:23;2.40;;;2.10;;
12665;SDS011;58531;59.050;17.416;2023-11-19T03:34:50;3.30;;;2.20;;
12665;SDS011;58531;59.050;17.416;2023-11-19T03:37:18;1.93;;;1.73;;
12665;SDS011;58531;59.050;17.416;2023-11-19T03:39:45;2.50;;;2.00;;
12665;SDS011;58531;59.050;17.416;2023-11-19T03:42:12;2.63;;;1.83;;
12665;SDS011;58531;59.050;17.416;2023-11-19T03:44:39;2.57;;;2.00;;
12665;SDS011;58531;59.050;17.416;2023-11-19T03:47:06;2.30;;;2.00;;
12665;SDS011;58531;59.050;17.416;2023-11-19T03:49:33;2.60;;;1.80;;
12665;SDS011;58531;59.050;17.416;2023-11-19T03:52:00;3.20;;;1.90;;
12665;SDS011;58531;59.050;17.416;2023-11-19T03:54:28;2.20;;;1.90;;
12665;SDS011;58531;59.050;17.416;2023-11-19T03:56:55;3.90;;;2.03;;
12665;SDS011;58531;59.050;17.416;2023-11-19T03:59:22;2.10;;;1.90;;
12665;SDS011;58531;59.050;17.416;2023-11-19T04:01:49;3.07;;;1.70;;
12665;SDS011;58531;59.050;17.416;2023-11-19T04:04:16;3.37;;;1.70;;
12665;SDS011;58531;59.050;17.416;2023-11-19T04:06:43;2.20;;;1.93;;
12665;SDS011;58531;59.050;17.416;2023-11-19T04:09:10;3.70;;;2.30;;
12665;SDS011;58531;59.050;17.416;2023-11-19T04:11:39;1.90;;;1.80;;
12665;SDS011;58531;59.050;17.416;2023-11-19T04:14:06;2.80;;;1.83;;
12665;SDS011;58531;59.050;17.416;2023-11-19T04:16:33;2.87;;;1.80;;
12665;SDS011;58531;59.050;17.416;2023-11-19T04:19:00;2.80;;;2.00;;
12665;SDS011;58531;59.050;17.416;2023-11-19T04:21:27;2.10;;;1.80;;
12665;SDS011;58531;59.050;17.416;2023-11-19T04:23:54;2.50;;;2.00;;
12665;SDS011;58531;59.050;17.416;2023-11-19T04:26:21;2.83;;;1.60;;
12665;SDS011;58531;59.050;17.416;2023-11-19T04:28:49;2.63;;;2.10;;
12665;SDS011;58531;59.050;17.416;2023-11-19T04:31:16;2.67;;;1.90;;
12665;SDS011;58531;59.050;17.416;2023-11-19T04:33:43;1.73;;;1.63;;
12665;SDS011;58531;59.050;17.416;2023-11-19T04:36:10;2.30;;;1.80;;
12665;SDS011;58531;59.050;17.416;2023-11-19T04:38:39;2.00;;;1.80;;
12665;SDS011;58531;59.050;17.416;2023-11-19T04:41:06;2.27;;;1.50;;
12665;SDS011;58531;59.050;17.416;2023-11-19T04:43:33;2.97;;;1.80;;
12665;SDS011;58531;59.050;17.416;2023-11-19T04:46:01;3.53;;;1.87;;
12665;SDS011;58531;59.050;17.416;2023-11-19T04:48:30;1.97;;;1.57;;
12665;SDS011;58531;59.050;17.416;2023-11-19T04:50:57;2.03;;;1.77;;
12665;SDS011;58531;59.050;17.416;2023-11-19T04:53:23;3.57;;;1.93;;
12665;SDS011;58531;59.050;17.416;2023-11-19T04:55:50;2.40;;;1.90;;
12665;SDS011;58531;59.050;17.416;2023-11-19T04:58:17;2.10;;;1.67;;
12665;SDS011;58531;59.050;17.416;2023-11-19T05:00:44;2.50;;;2.00;;
12665;SDS011;58531;59.050;17.416;2023-11-19T05:03:12;2.30;;;2.10;;
12665;SDS011;58531;59.050;17.416;2023-11-19T05:05:39;3.70;;;1.70;;
12665;SDS011;58531;59.050;17.416;2023-11-19T05:08:06;2.33;;;1.80;;
12665;SDS011;58531;59.050;17.416;2023-11-19T05:10:33;2.37;;;2.00;;
12665;SDS011;58531;59.050;17.416;2023-11-19T05:12:59;2.77;;;2.30;;
12665;SDS011;58531;59.050;17.416;2023-11-19T05:15:26;2.60;;;2.07;;
12665;SDS011;58531;59.050;17.416;2023-11-19T05:17:54;2.17;;;1.70;;
12665;SDS011;58531;59.050;17.416;2023-11-19T05:20:22;2.23;;;1.87;;
12665;SDS011;58531;59.050;17.416;2023-11-19T05:22:49;2.10;;;1.77;;
12665;SDS011;58531;59.050;17.416;2023-11-19T05:25:16;3.27;;;2.10;;
12665;SDS011;58531;59.050;17.416;2023-11-19T05:27:45;2.47;;;2.10;;
12665;SDS011;58531;59.050;17.416;2023-11-19T05:30:12;3.13;;;2.50;;
12665;SDS011;58531;59.050;17.416;2023-11-19T05:32:39;3.00;;;2.03;;
12665;SDS011;58531;59.050;17.416;2023-11-19T05:35:07;2.73;;;2.30;;
12665;SDS011;58531;59.050;17.416;2023-11-19T05:37:36;2.87;;;2.17;;
12665;SDS011;58531;59.050;17.416;2023-11-19T05:40:03;2.70;;;2.13;;
12665;SDS011;58531;59.050;17.416;2023-11-19T05:42:37;2.33;;;2.10;;
12665;SDS011;58531;59.050;17.416;2023-11-19T05:45:04;4.20;;;2.33;;
12665;SDS011;58531;59.050;17.416;2023-11-19T05:47:32;2.83;;;2.03;;
12665;SDS011;58531;59.050;17.416;2023-11-19T05:49:59;3.37;;;2.40;;
12665;SDS011;58531;59.050;17.416;2023-11-19T05:52:26;2.77;;;2.53;;
12665;SDS011;58531;59.050;17.416;2023-11-19T05:54:59;3.50;;;2.50;;
12665;SDS011;58531;59.050;17.416;2023-11-19T05:57:29;3.57;;;2.27;;
12665;SDS011;58531;59.050;17.416;2023-11-19T05:59:56;3.17;;;2.40;;
12665;SDS011;58531;59.050;17.416;2023-11-19T06:02:24;3.63;;;2.60;;
12665;SDS011;58531;59.050;17.416;2023-11-19T06:04:52;3.20;;;2.47;;
12665;SDS011;58531;59.050;17.416;2023-11-19T06:07:19;2.67;;;2.13;;
12665;SDS011;58531;59.050;17.416;2023-11-19T06:09:46;3.53;;;2.40;;
12665;SDS011;58531;59.050;17.416;2023-11-19T06:12:14;3.13;;;2.63;;
12665;SDS011;58531;59.050;17.416;2023-11-19T06:14:41;3.27;;;2.50;;
12665;SDS011;58531;59.050;17.416;2023-11-19T06:17:08;2.90;;;2.60;;
12665;SDS011;58531;59.050;17.416;2023-11-19T06:19:36;3.77;;;2.53;;
12665;SDS011;58531;59.050;17.416;2023-11-19T06:22:03;2.67;;;2.30;;
12665;SDS011;58531;59.050;17.416;2023-11-19T06:24:30;2.70;;;2.23;;
12665;SDS011;58531;59.050;17.416;2023-11-19T06:26:57;6.27;;;2.77;;
12665;SDS011;58531;59.050;17.416;2023-11-19T06:29:26;2.90;;;2.27;;
12665;SDS011;58531;59.050;17.416;2023-11-19T06:31:53;4.27;;;3.00;;
12665;SDS011;58531;59.050;17.416;2023-11-19T06:34:20;5.20;;;3.07;;
12665;SDS011;58531;59.050;17.416;2023-11-19T06:36:46;3.63;;;2.60;;
12665;SDS011;58531;59.050;17.416;2023-11-19T06:39:13;3.57;;;2.77;;
12665;SDS011;58531;59.050;17.416;2023-11-19T06:41:44;3.53;;;2.70;;
12665;SDS011;58531;59.050;17.416;2023-11-19T06:44:11;3.00;;;2.53;;
12665;SDS011;58531;59.050;17.416;2023-11-19T06:46:40;6.10;;;2.90;;
12665;SDS011;58531;59.050;17.416;2023-11-19T06:49:07;4.00;;;3.07;;
12665;SDS011;58531;59.050;17.416;2023-11-19T06:51:33;4.90;;;3.50;;
12665;SDS011;58531;59.050;17.416;2023-11-19T06:54:00;5.47;;;3.13;;
12665;SDS011;58531;59.050;17.416;2023-11-19T06:56:27;3.93;;;2.97;;
12665;SDS011;58531;59.050;17.416;2023-11-19T06:58:54;3.80;;;2.70;;
12665;SDS011;58531;59.050;17.416;2023-11-19T07:01:21;3.03;;;2.70;;
12665;SDS011;58531;59.050;17.416;2023-11-19T07:03:49;4.27;;;3.10;;
12665;SDS011;58531;59.050;17.416;2023-11-19T07:06:16;5.47;;;3.07;;
12665;SDS011;58531;59.050;17.416;2023-11-19T07:08:43;3.73;;;3.13;;
12665;SDS011;58531;59.050;17.416;2023-11-19T07:11:11;3.73;;;2.80;;
12665;SDS011;58531;59.050;17.416;2023-11-19T07:13:39;4.07;;;3.13;;
12665;SDS011;58531;59.050;17.416;2023-11-19T07:16:07;4.93;;;3.03;;
12665;SDS011;58531;59.050;17.416;2023-11-19T07:18:36;3.60;;;3.23;;
12665;SDS011;58531;59.050;17.416;2023-11-19T07:21:05;4.83;;;3.53;;
12665;SDS011;58531;59.050;17.416;2023-11-19T07:23:35;5.80;;;3.80;;
12665;SDS011;58531;59.050;17.416;2023-11-19T07:26:04;5.70;;;4.00;;
12665;SDS011;58531;59.050;17.416;2023-11-19T07:28:33;4.50;;;3.67;;
12665;SDS011;58531;59.050;17.416;2023-11-19T07:31:00;5.03;;;3.77;;
12665;SDS011;58531;59.050;17.416;2023-11-19T07:33:27;4.97;;;3.73;;
12665;SDS011;58531;59.050;17.416;2023-11-19T07:35:54;11.00;;;7.07;;
12665;SDS011;58531;59.050;17.416;2023-11-19T07:38:23;19.10;;;10.90;;
12665;SDS011;58531;59.050;17.416;2023-11-19T07:40:50;11.50;;;6.80;;
12665;SDS011;58531;59.050;17.416;2023-11-19T07:43:16;10.63;;;7.40;;
12665;SDS011;58531;59.050;17.416;2023-11-19T07:45:43;29.23;;;13.40;;
12665;SDS011;58531;59.050;17.416;2023-11-19T07:48:11;32.33;;;14.90;;
12665;SDS011;58531;59.050;17.416;2023-11-19T07:50:38;41.10;;;19.27;;
12665;SDS011;58531;59.050;17.416;2023-11-19T07:53:05;41.37;;;19.73;;
12665;SDS011;58531;59.050;17.416;2023-11-19T07:55:35;28.13;;;17.13;;
12665;SDS011;58531;59.050;17.416;2023-11-19T07:58:02;18.33;;;13.63;;
12665;SDS011;58531;59.050;17.416;2023-11-19T08:00:29;8.13;;;6.60;;
12665;SDS011;58531;59.050;17.416;2023-11-19T08:02:55;13.27;;;11.83;;
12665;SDS011;58531;59.050;17.416;2023-11-19T08:05:22;7.83;;;4.63;;
12665;SDS011;58531;59.050;17.416;2023-11-19T08:07:50;18.20;;;12.43;;
12665;SDS011;58531;59.050;17.416;2023-11-19T08:10:18;19.40;;;13.43;;
12665;SDS011;58531;59.050;17.416;2023-11-19T08:12:46;8.90;;;5.93;;
12665;SDS011;58531;59.050;17.416;2023-11-19T08:15:13;5.20;;;4.60;;
12665;SDS011;58531;59.050;17.416;2023-11-19T08:17:40;6.47;;;5.27;;
12665;SDS011;58531;59.050;17.416;2023-11-19T08:20:08;6.50;;;4.93;;
12665;SDS011;58531;59.050;17.416;2023-11-19T08:22:35;8.23;;;5.20;;
12665;SDS011;58531;59.050;17.416;2023-11-19T08:25:03;7.57;;;4.97;;
12665;SDS011;58531;59.050;17.416;2023-11-19T08:27:30;7.13;;;4.73;;
12665;SDS011;58531;59.050;17.416;2023-11-19T08:29:59;6.63;;;5.20;;
12665;SDS011;58531;59.050;17.416;2023-11-19T08:32:26;7.50;;;5.90;;
12665;SDS011;58531;59.050;17.416;2023-11-19T08:34:53;6.83;;;5.10;;
12665;SDS011;58531;59.050;17.416;2023-11-19T08:37:21;6.60;;;4.93;;
12665;SDS011;58531;59.050;17.416;2023-11-19T08:39:48;8.57;;;4.83;;
12665;SDS011;58531;59.050;17.416;2023-11-19T08:42:15;8.10;;;5.03;;
12665;SDS011;58531;59.050;17.416;2023-11-19T08:44:42;6.60;;;5.03;;
12665;SDS011;58531;59.050;17.416;2023-11-19T08:47:10;7.30;;;4.40;;
12665;SDS011;58531;59.050;17.416;2023-11-19T08:49:37;6.83;;;4.77;;
12665;SDS011;58531;59.050;17.416;2023-11-19T08:52:04;6.23;;;4.63;;
12665;SDS011;58531;59.050;17.416;2023-11-19T08:54:32;6.03;;;4.07;;
12665;SDS011;58531;59.050;17.416;2023-11-19T08:56:59;6.73;;;3.93;;
12665;SDS011;58531;59.050;17.416;2023-11-19T08:59:26;7.40;;;4.53;;
12665;SDS011;58531;59.050;17.416;2023-11-19T09:01:53;6.47;;;5.20;;
12665;SDS011;58531;59.050;17.416;2023-11-19T09:04:21;5.87;;;4.40;;
12665;SDS011;58531;59.050;17.416;2023-11-19T09:06:48;7.13;;;4.47;;
12665;SDS011;58531;59.050;17.416;2023-11-19T09:09:15;5.47;;;4.53;;
12665;SDS011;58531;59.050;17.416;2023-11-19T09:11:42;6.53;;;4.50;;
12665;SDS011;58531;59.050;17.416;2023-11-19T09:14:09;5.63;;;4.20;;
12665;SDS011;58531;59.050;17.416;2023-11-19T09:16:35;4.70;;;4.13;;
12665;SDS011;58531;59.050;17.416;2023-11-19T09:19:03;4.63;;;3.87;;
12665;SDS011;58531;59.050;17.416;2023-11-19T09:21:31;3.97;;;3.53;;
12665;SDS011;58531;59.050;17.416;2023-11-19T09:23:59;6.40;;;3.80;;
12665;SDS011;58531;59.050;17.416;2023-11-19T09:26:27;6.00;;;4.20;;
12665;SDS011;58531;59.050;17.416;2023-11-19T09:28:55;6.90;;;4.30;;
12665;SDS011;58531;59.050;17.416;2023-11-19T09:31:22;6.50;;;3.70;;
12665;SDS011;58531;59.050;17.416;2023-11-19T09:33:49;4.80;;;4.07;;
12665;SDS011;58531;59.050;17.416;2023-11-19T09:36:16;4.43;;;3.27;;
12665;SDS011;58531;59.050;17.416;2023-11-19T09:38:45;4.67;;;3.10;;
12665;SDS011;58531;59.050;17.416;2023-11-19T09:41:12;3.50;;;3.10;;
12665;SDS011;58531;59.050;17.416;2023-11-19T09:43:39;4.20;;;3.37;;
12665;SDS011;58531;59.050;17.416;2023-11-19T09:46:09;3.97;;;3.10;;
12665;SDS011;58531;59.050;17.416;2023-11-19T09:48:37;5.40;;;3.83;;
12665;SDS011;58531;59.050;17.416;2023-11-19T09:51:06;5.77;;;2.80;;
12665;SDS011;58531;59.050;17.416;2023-11-19T09:53:34;3.67;;;2.60;;
12665;SDS011;58531;59.050;17.416;2023-11-19T09:56:04;2.87;;;2.40;;
12665;SDS011;58531;59.050;17.416;2023-11-19T10:01:03;2.83;;;2.40;;
12665;SDS011;58531;59.050;17.416;2023-11-19T10:03:37;2.40;;;2.20;;
12665;SDS011;58531;59.050;17.416;2023-11-19T10:06:09;3.77;;;3.23;;
12665;SDS011;58531;59.050;17.416;2023-11-19T10:08:41;3.00;;;2.67;;
12665;SDS011;58531;59.050;17.416;2023-11-19T10:11:13;2.60;;;2.40;;
12665;SDS011;58531;59.050;17.416;2023-11-19T10:13:44;3.20;;;2.53;;
12665;SDS011;58531;59.050;17.416;2023-11-19T10:16:14;3.07;;;2.40;;
12665;SDS011;58531;59.050;17.416;2023-11-19T10:18:45;2.70;;;2.37;;
12665;SDS011;58531;59.050;17.416;2023-11-19T10:21:12;4.70;;;2.60;;
12665;SDS011;58531;59.050;17.416;2023-11-19T10:23:49;2.47;;;2.23;;
12665;SDS011;58531;59.050;17.416;2023-11-19T10:26:36;4.00;;;3.60;;
12665;SDS011;58531;59.050;17.416;2023-11-19T10:29:04;5.23;;;3.57;;
12665;SDS011;58531;59.050;17.416;2023-11-19T10:31:32;3.83;;;2.97;;
12665;SDS011;58531;59.050;17.416;2023-11-19T10:34:01;9.80;;;5.30;;
12665;SDS011;58531;59.050;17.416;2023-11-19T10:36:47;4.70;;;3.77;;
12665;SDS011;58531;59.050;17.416;2023-11-19T10:39:15;4.00;;;3.60;;
12665;SDS011;58531;59.050;17.416;2023-11-19T10:41:50;5.70;;;3.30;;
12665;SDS011;58531;59.050;17.416;2023-11-19T10:44:32;4.20;;;2.90;;
12665;SDS011;58531;59.050;17.416;2023-11-19T10:47:18;3.37;;;2.97;;
12665;SDS011;58531;59.050;17.416;2023-11-19T10:49:47;5.40;;;2.90;;
12665;SDS011;58531;59.050;17.416;2023-11-19T10:52:16;3.47;;;2.97;;
12665;SDS011;58531;59.050;17.416;2023-11-19T10:54:48;4.23;;;2.73;;
12665;SDS011;58531;59.050;17.416;2023-11-19T10:57:19;3.47;;;3.03;;
12665;SDS011;58531;59.050;17.416;2023-11-19T10:59:51;2.53;;;2.10;;
12665;SDS011;58531;59.050;17.416;2023-11-19T11:02:24;3.13;;;2.80;;
12665;SDS011;58531;59.050;17.416;2023-11-19T11:05:26;3.87;;;3.10;;
12665;SDS011;58531;59.050;17.416;2023-11-19T11:10:48;4.97;;;3.57;;
12665;SDS011;58531;59.050;17.416;2023-11-19T11:16:17;4.63;;;2.90;;
12665;SDS011;58531;59.050;17.416;2023-11-19T11:18:46;5.50;;;3.60;;
12665;SDS011;58531;59.050;17.416;2023-11-19T11:21:16;7.87;;;4.63;;
12665;SDS011;58531;59.050;17.416;2023-11-19T11:24:05;6.23;;;4.37;;
12665;SDS011;58531;59.050;17.416;2023-11-19T11:27:04;5.93;;;3.50;;
12665;SDS011;58531;59.050;17.416;2023-11-19T11:29:55;4.73;;;2.90;;
12665;SDS011;58531;59.050;17.416;2023-11-19T11:32:31;3.67;;;2.50;;
12665;SDS011;58531;59.050;17.416;2023-11-19T11:35:14;9.50;;;5.57;;
12665;SDS011;58531;59.050;17.416;2023-11-19T11:37:53;4.90;;;4.30;;
12665;SDS011;58531;59.050;17.416;2023-11-19T11:40:26;5.70;;;3.40;;
12665;SDS011;58531;59.050;17.416;2023-11-19T11:42:53;3.83;;;2.60;;
12665;SDS011;58531;59.050;17.416;2023-11-19T11:45:21;5.67;;;2.63;;
12665;SDS011;58531;59.050;17.416;2023-11-19T11:48:11;3.40;;;2.67;;
12665;SDS011;58531;59.050;17.416;2023-11-19T11:50:47;6.30;;;4.33;;
12665;SDS011;58531;59.050;17.416;2023-11-19T11:53:17;5.63;;;2.93;;
12665;SDS011;58531;59.050;17.416;2023-11-19T11:55:57;3.07;;;2.77;;
12665;SDS011;58531;59.050;17.416;2023-11-19T11:58:26;2.97;;;2.20;;
12665;SDS011;58531;59.050;17.416;2023-11-19T12:00:58;5.20;;;2.77;;
12665;SDS011;58531;59.050;17.416;2023-11-19T12:03:27;4.67;;;2.50;;
12665;SDS011;58531;59.050;17.416;2023-11-19T12:05:56;3.20;;;2.30;;
12665;SDS011;58531;59.050;17.416;2023-11-19T12:08:25;3.00;;;2.50;;
12665;SDS011;58531;59.050;17.416;2023-11-19T12:10:54;4.17;;;2.90;;
12665;SDS011;58531;59.050;17.416;2023-11-19T12:13:23;3.67;;;2.53;;
12665;SDS011;58531;59.050;17.416;2023-11-19T12:16:10;3.03;;;2.40;;
12665;SDS011;58531;59.050;17.416;2023-11-19T12:18:38;6.93;;;4.70;;
12665;SDS011;58531;59.050;17.416;2023-11-19T12:21:10;4.83;;;2.83;;
12665;SDS011;58531;59.050;17.416;2023-11-19T12:23:43;3.90;;;2.53;;
12665;SDS011;58531;59.050;17.416;2023-11-19T12:29:02;2.53;;;2.33;;
12665;SDS011;58531;59.050;17.416;2023-11-19T12:31:33;3.53;;;2.70;;
12665;SDS011;58531;59.050;17.416;2023-11-19T12:34:07;4.97;;;3.53;;
12665;SDS011;58531;59.050;17.416;2023-11-19T12:36:36;3.87;;;2.47;;
12665;SDS011;58531;59.050;17.416;2023-11-19T12:39:05;5.10;;;2.73;;
12665;SDS011;58531;59.050;17.416;2023-11-19T12:41:32;3.37;;;2.87;;
12665;SDS011;58531;59.050;17.416;2023-11-19T12:44:14;3.60;;;3.10;;
12665;SDS011;58531;59.050;17.416;2023-11-19T12:46:44;4.47;;;3.17;;
12665;SDS011;58531;59.050;17.416;2023-11-19T12:49:11;4.07;;;3.10;;
12665;SDS011;58531;59.050;17.416;2023-11-19T12:51:39;3.43;;;2.83;;
12665;SDS011;58531;59.050;17.416;2023-11-19T12:54:06;3.70;;;2.37;;
12665;SDS011;58531;59.050;17.416;2023-11-19T12:56:34;3.50;;;2.70;;
12665;SDS011;58531;59.050;17.416;2023-11-19T12:59:09;4.27;;;3.87;;
12665;SDS011;58531;59.050;17.416;2023-11-19T13:01:37;5.10;;;2.97;;
12665;SDS011;58531;59.050;17.416;2023-11-19T13:04:17;2.97;;;2.60;;
12665;SDS011;58531;59.050;17.416;2023-11-19T13:06:44;4.37;;;3.27;;
12665;SDS011;58531;59.050;17.416;2023-11-19T13:09:21;3.60;;;2.93;;
12665;SDS011;58531;59.050;17.416;2023-11-19T13:11:48;5.30;;;3.17;;
12665;SDS011;58531;59.050;17.416;2023-11-19T13:14:15;27.43;;;13.73;;
12665;SDS011;58531;59.050;17.416;2023-11-19T13:16:42;16.57;;;9.90;;
12665;SDS011;58531;59.050;17.416;2023-11-19T13:19:10;5.57;;;3.50;;
12665;SDS011;58531;59.050;17.416;2023-11-19T13:21:39;5.03;;;3.20;;
12665;SDS011;58531;59.050;17.416;2023-11-19T13:24:06;3.43;;;3.13;;
12665;SDS011;58531;59.050;17.416;2023-11-19T13:26:33;3.37;;;3.00;;
12665;SDS011;58531;59.050;17.416;2023-11-19T13:29:00;3.63;;;3.00;;
12665;SDS011;58531;59.050;17.416;2023-11-19T13:31:29;7.67;;;3.87;;
12665;SDS011;58531;59.050;17.416;2023-11-19T13:33:56;4.07;;;3.47;;
12665;SDS011;58531;59.050;17.416;2023-11-19T13:36:23;4.90;;;4.00;;
12665;SDS011;58531;59.050;17.416;2023-11-19T13:38:53;3.43;;;3.13;;
12665;SDS011;58531;59.050;17.416;2023-11-19T13:41:24;4.97;;;4.03;;
12665;SDS011;58531;59.050;17.416;2023-11-19T13:43:51;13.83;;;6.93;;
12665;SDS011;58531;59.050;17.416;2023-11-19T13:46:18;5.93;;;3.67;;
12665;SDS011;58531;59.050;17.416;2023-11-19T13:48:45;5.23;;;4.20;;
12665;SDS011;58531;59.050;17.416;2023-11-19T13:51:13;6.43;;;4.00;;
12665;SDS011;58531;59.050;17.416;2023-11-19T13:53:40;4.33;;;3.50;;
12665;SDS011;58531;59.050;17.416;2023-11-19T13:56:09;7.20;;;4.50;;
12665;SDS011;58531;59.050;17.416;2023-11-19T13:58:36;6.03;;;4.30;;
12665;SDS011;58531;59.050;17.416;2023-11-19T14:01:03;5.73;;;4.50;;
12665;SDS011;58531;59.050;17.416;2023-11-19T14:03:31;7.03;;;4.13;;
12665;SDS011;58531;59.050;17.416;2023-11-19T14:05:58;6.47;;;4.90;;
12665;SDS011;58531;59.050;17.416;2023-11-19T14:08:25;5.73;;;4.47;;
12665;SDS011;58531;59.050;17.416;2023-11-19T14:10:52;6.50;;;4.67;;
12665;SDS011;58531;59.050;17.416;2023-11-19T14:13:21;6.73;;;4.20;;
12665;SDS011;58531;59.050;17.416;2023-11-19T14:15:49;5.97;;;4.23;;
12665;SDS011;58531;59.050;17.416;2023-11-19T14:18:16;6.00;;;4.63;;
12665;SDS011;58531;59.050;17.416;2023-11-19T14:20:42;6.07;;;4.33;;
12665;SDS011;58531;59.050;17.416;2023-11-19T14:23:09;5.83;;;4.00;;
12665;SDS011;58531;59.050;17.416;2023-11-19T14:25:36;6.83;;;4.77;;
12665;SDS011;58531;59.050;17.416;2023-11-19T14:28:03;5.80;;;4.03;;
12665;SDS011;58531;59.050;17.416;2023-11-19T14:30:32;6.60;;;4.03;;
12665;SDS011;58531;59.050;17.416;2023-11-19T14:32:59;6.67;;;4.67;;
12665;SDS011;58531;59.050;17.416;2023-11-19T14:35:26;6.30;;;3.97;;
12665;SDS011;58531;59.050;17.416;2023-11-19T14:37:55;12.00;;;6.10;;
12665;SDS011;58531;59.050;17.416;2023-11-19T14:40:22;10.47;;;4.70;;
12665;SDS011;58531;59.050;17.416;2023-11-19T14:42:48;5.03;;;3.87;;
12665;SDS011;58531;59.050;17.416;2023-11-19T14:45:15;7.07;;;4.20;;
12665;SDS011;58531;59.050;17.416;2023-11-19T14:47:44;8.07;;;4.70;;
12665;SDS011;58531;59.050;17.416;2023-11-19T14:50:11;4.90;;;3.90;;
12665;SDS011;58531;59.050;17.416;2023-11-19T14:52:38;6.63;;;4.97;;
12665;SDS011;58531;59.050;17.416;2023-11-19T14:55:05;7.67;;;4.73;;
12665;SDS011;58531;59.050;17.416;2023-11-19T14:57:32;16.87;;;8.97;;